Time;durP1;ratioP1;P1;durP2;ratioP2;P2;SDS_P1;SDS_P2;PMS_P1;PMS_P2;Temp;Humidity;BMP_temperature;BMP_pressure;BME280_temperature;BME280_humidity;BME280_pressure;Samples;Min_cycle;Max_cycle;Signal;HPM_P1;HPM_P2
2022/05/04 00:00:33;;;;;;;13.17;9.37;;;;;;;;;;5039458;28;20187;-66
2022/05/04 00:02:59;;;;;;;7.03;4.43;;;;;;;;;;5057165;28;20210;-66
2022/05/04 00:05:25;;;;;;;6.37;3.97;;;;;;;;;;5057327;28;20232;-66
2022/05/04 00:07:51;;;;;;;7.47;4.50;;;;;;;;;;5057217;28;20220;-65
2022/05/04 00:10:17;;;;;;;8.77;5.03;;;;;;;;;;5056652;28;20285;-65
2022/05/04 00:12:42;;;;;;;5.77;4.20;;;;;;;;;;5038571;28;20188;-66
2022/05/04 00:15:09;;;;;;;6.13;4.03;;;;;;;;;;5056479;28;20174;-66
2022/05/04 00:17:35;;;;;;;7.00;4.27;;;;;;;;;;5038213;28;20206;-66
2022/05/04 00:20:01;;;;;;;11.17;4.57;;;;;;;;;;5056080;28;20185;-66
2022/05/04 00:22:27;;;;;;;7.03;4.37;;;;;;;;;;5056071;28;20178;-66
2022/05/04 00:24:53;;;;;;;6.03;4.07;;;;;;;;;;5038333;28;20190;-66
2022/05/04 00:27:19;;;;;;;10.50;4.47;;;;;;;;;;5056256;28;20183;-65
2022/05/04 00:29:46;;;;;;;5.77;4.67;;;;;;;;;;5055758;28;20696;-66
2022/05/04 00:32:13;;;;;;;6.30;4.70;;;;;;;;;;5038219;28;20182;-66
2022/05/04 00:34:39;;;;;;;7.93;4.07;;;;;;;;;;5038029;28;20178;-65
2022/05/04 00:37:05;;;;;;;8.37;4.60;;;;;;;;;;5056124;28;20179;-65
2022/05/04 00:39:31;;;;;;;6.40;4.67;;;;;;;;;;5055975;28;20174;-65
2022/05/04 00:42:26;;;;;;;6.67;4.67;;;;;;;;;;5037910;28;20182;-66
2022/05/04 00:44:52;;;;;;;7.50;4.40;;;;;;;;;;5039104;28;20561;-66
2022/05/04 00:47:19;;;;;;;7.27;4.50;;;;;;;;;;5055860;28;20179;-66
2022/05/04 00:49:47;;;;;;;9.57;4.90;;;;;;;;;;5037719;28;20566;-65
2022/05/04 00:52:13;;;;;;;5.73;4.43;;;;;;;;;;5056017;28;20186;-66
2022/05/04 00:54:41;;;;;;;6.00;4.33;;;;;;;;;;5055833;28;20373;-66
2022/05/04 00:57:07;;;;;;;7.53;5.00;;;;;;;;;;5037930;28;20182;-66
2022/05/04 00:59:33;;;;;;;6.43;4.73;;;;;;;;;;5037901;28;20231;-65
2022/05/04 01:01:59;;;;;;;12.77;4.63;;;;;;;;;;5055782;28;20261;-66
2022/05/04 01:04:26;;;;;;;6.83;4.07;;;;;;;;;;5055687;28;20174;-66
2022/05/04 01:06:52;;;;;;;5.57;4.20;;;;;;;;;;5055640;28;20220;-66
2022/05/04 01:09:18;;;;;;;6.17;4.07;;;;;;;;;;5055365;28;20217;-65
2022/05/04 01:11:46;;;;;;;7.83;4.20;;;;;;;;;;5037580;28;20174;-65
2022/05/04 01:14:12;;;;;;;5.43;4.00;;;;;;;;;;5055498;28;20630;-66
2022/05/04 01:16:40;;;;;;;8.17;4.20;;;;;;;;;;5037672;28;20554;-66
2022/05/04 01:19:06;;;;;;;6.53;4.67;;;;;;;;;;5055397;28;20222;-65
2022/05/04 01:21:33;;;;;;;7.67;4.80;;;;;;;;;;5055571;28;20647;-66
2022/05/04 01:23:59;;;;;;;7.70;4.47;;;;;;;;;;5055337;28;20257;-65
2022/05/04 01:26:25;;;;;;;6.17;3.87;;;;;;;;;;5055279;28;20209;-66
2022/05/04 01:28:51;;;;;;;6.13;4.20;;;;;;;;;;5055309;28;20206;-65
2022/05/04 01:31:16;;;;;;;8.23;4.73;;;;;;;;;;5054978;28;20199;-66
2022/05/04 01:33:42;;;;;;;8.73;4.83;;;;;;;;;;5037166;28;20261;-66
2022/05/04 01:36:08;;;;;;;5.73;4.53;;;;;;;;;;5054963;28;20179;-66
2022/05/04 01:38:35;;;;;;;13.57;4.53;;;;;;;;;;5055154;28;20735;-66
2022/05/04 01:41:01;;;;;;;7.43;4.00;;;;;;;;;;5054993;28;20174;-67
2022/05/04 01:43:27;;;;;;;9.77;4.50;;;;;;;;;;5036950;28;20178;-66
2022/05/04 01:45:53;;;;;;;6.63;4.50;;;;;;;;;;5055434;28;20183;-66
2022/05/04 01:48:20;;;;;;;9.47;4.40;;;;;;;;;;5054701;28;20670;-65
2022/05/04 01:50:46;;;;;;;8.37;4.20;;;;;;;;;;5054959;28;20224;-66
2022/05/04 01:53:11;;;;;;;7.73;4.27;;;;;;;;;;5036915;28;20714;-65
2022/05/04 01:55:37;;;;;;;5.77;4.37;;;;;;;;;;5037046;28;20175;-66
2022/05/04 01:58:04;;;;;;;7.43;4.80;;;;;;;;;;5054534;28;20209;-66
2022/05/04 02:00:30;;;;;;;12.00;4.53;;;;;;;;;;5054599;28;20191;-65
2022/05/04 02:02:56;;;;;;;7.73;4.80;;;;;;;;;;5036632;28;20240;-65
2022/05/04 02:05:23;;;;;;;6.43;4.30;;;;;;;;;;5036554;28;20560;-66
2022/05/04 02:07:49;;;;;;;6.97;4.40;;;;;;;;;;5036359;28;20217;-66
2022/05/04 02:10:15;;;;;;;7.20;4.57;;;;;;;;;;5054689;28;20195;-66
2022/05/04 02:12:41;;;;;;;5.93;4.60;;;;;;;;;;5035968;28;20266;-65
2022/05/04 02:15:08;;;;;;;13.63;4.77;;;;;;;;;;5054350;28;20612;-65
2022/05/04 02:17:34;;;;;;;9.07;5.00;;;;;;;;;;5054204;28;20194;-65
2022/05/04 02:20:00;;;;;;;9.50;4.07;;;;;;;;;;5036425;28;20183;-65
2022/05/04 02:22:26;;;;;;;8.67;4.73;;;;;;;;;;5054474;28;20182;-65
2022/05/04 02:24:52;;;;;;;6.67;4.87;;;;;;;;;;5054152;28;20178;-65
2022/05/04 02:27:18;;;;;;;7.50;4.97;;;;;;;;;;5054179;28;20182;-65
2022/05/04 02:29:44;;;;;;;8.03;4.80;;;;;;;;;;5054026;28;20202;-65
2022/05/04 02:32:10;;;;;;;7.27;4.57;;;;;;;;;;5036072;28;20179;-65
2022/05/04 02:40:06;;;;;;;11.83;5.20;;;;;;;;;;5054435;28;20554;-65
2022/05/04 02:42:32;;;;;;;11.00;5.17;;;;;;;;;;5036764;28;20182;-65
2022/05/04 02:44:58;;;;;;;7.00;4.80;;;;;;;;;;5054353;28;20179;-65
2022/05/04 02:47:24;;;;;;;5.27;4.47;;;;;;;;;;5036650;28;20206;-65
2022/05/04 02:49:50;;;;;;;8.73;5.00;;;;;;;;;;5054086;28;20228;-65
2022/05/04 02:52:16;;;;;;;8.37;4.77;;;;;;;;;;5054264;28;20631;-65
2022/05/04 02:54:42;;;;;;;10.27;5.20;;;;;;;;;;5035860;28;20178;-65
2022/05/04 02:57:08;;;;;;;8.87;5.10;;;;;;;;;;5053452;28;20189;-65
2022/05/04 02:59:34;;;;;;;7.77;4.83;;;;;;;;;;5035724;28;20210;-65
2022/05/04 03:04:44;;;;;;;9.93;5.00;;;;;;;;;;5053829;28;20254;-65
2022/05/04 03:07:10;;;;;;;8.83;5.60;;;;;;;;;;5053533;28;20210;-65
2022/05/04 03:09:36;;;;;;;7.83;5.07;;;;;;;;;;5053266;28;20202;-65
2022/05/04 03:12:02;;;;;;;9.80;5.27;;;;;;;;;;5053309;28;20178;-65
2022/05/04 03:14:29;;;;;;;9.77;5.63;;;;;;;;;;5035422;28;20221;-65
2022/05/04 03:16:55;;;;;;;9.23;5.43;;;;;;;;;;5053213;28;20585;-65
2022/05/04 03:19:21;;;;;;;12.73;5.67;;;;;;;;;;5035308;28;20202;-65
2022/05/04 03:21:47;;;;;;;13.83;6.03;;;;;;;;;;5053169;28;20627;-65
2022/05/04 03:24:13;;;;;;;10.97;5.37;;;;;;;;;;5034501;28;20600;-66
2022/05/04 03:26:39;;;;;;;8.47;4.87;;;;;;;;;;5053239;28;20257;-66
2022/05/04 03:29:05;;;;;;;10.57;5.40;;;;;;;;;;5053363;28;20674;-65
2022/05/04 03:31:32;;;;;;;13.37;5.40;;;;;;;;;;5035291;28;20244;-65
2022/05/04 03:33:58;;;;;;;10.70;5.20;;;;;;;;;;5053065;28;20178;-67
2022/05/04 03:36:24;;;;;;;14.83;5.83;;;;;;;;;;5053150;28;20181;-69
2022/05/04 03:38:50;;;;;;;13.17;5.87;;;;;;;;;;5035143;28;20614;-67
2022/05/04 03:41:17;;;;;;;7.53;4.50;;;;;;;;;;5035078;28;20182;-66
2022/05/04 03:43:43;;;;;;;8.10;5.40;;;;;;;;;;5052974;28;20178;-65
2022/05/04 03:46:13;;;;;;;8.10;5.33;;;;;;;;;;5053005;28;20213;-66
2022/05/04 03:48:39;;;;;;;12.13;5.87;;;;;;;;;;5053450;28;20198;-65
2022/05/04 03:51:05;;;;;;;9.93;5.80;;;;;;;;;;5034996;28;20264;-65
2022/05/04 03:53:31;;;;;;;9.07;5.03;;;;;;;;;;5035398;28;20180;-66
2022/05/04 03:55:57;;;;;;;11.00;5.83;;;;;;;;;;5034981;28;20269;-65
2022/05/04 03:58:23;;;;;;;10.20;5.40;;;;;;;;;;5034974;28;20198;-65
2022/05/04 04:00:49;;;;;;;6.47;5.20;;;;;;;;;;5052984;28;20188;-65
2022/05/04 04:03:15;;;;;;;9.90;4.93;;;;;;;;;;5052811;28;20238;-65
2022/05/04 04:05:41;;;;;;;13.17;5.73;;;;;;;;;;5053366;28;20179;-66
2022/05/04 04:08:07;;;;;;;9.60;5.30;;;;;;;;;;5034982;28;20288;-65
2022/05/04 04:10:33;;;;;;;6.87;4.70;;;;;;;;;;5052675;28;20210;-65
2022/05/04 04:12:58;;;;;;;10.20;5.27;;;;;;;;;;5053724;28;20175;-65
2022/05/04 04:15:24;;;;;;;11.83;5.73;;;;;;;;;;5052781;28;20634;-65
2022/05/04 04:17:50;;;;;;;6.33;4.23;;;;;;;;;;5052666;28;20726;-68
2022/05/04 04:23:01;;;;;;;8.80;5.67;;;;;;;;;;5069351;22;20366;-67
2022/05/04 04:25:27;;;;;;;9.87;5.67;;;;;;;;;;5052835;28;20606;-66
2022/05/04 04:27:53;;;;;;;8.40;5.43;;;;;;;;;;5034849;28;20266;-66
2022/05/04 04:30:19;;;;;;;12.00;5.93;;;;;;;;;;5052478;28;20224;-64
2022/05/04 04:32:45;;;;;;;10.13;5.80;;;;;;;;;;5034740;28;20198;-66
2022/05/04 04:35:11;;;;;;;7.73;4.93;;;;;;;;;;5036179;28;20618;-64
2022/05/04 04:37:37;;;;;;;10.63;5.17;;;;;;;;;;5056660;28;20555;-66
2022/05/04 04:40:03;;;;;;;12.23;5.87;;;;;;;;;;5056706;28;20773;-65
2022/05/04 04:42:29;;;;;;;13.00;5.97;;;;;;;;;;5056126;28;20289;-66
2022/05/04 04:44:55;;;;;;;10.10;5.73;;;;;;;;;;5038069;28;20657;-65
2022/05/04 04:47:21;;;;;;;10.10;5.60;;;;;;;;;;5056213;28;20670;-66
2022/05/04 04:49:47;;;;;;;11.33;5.10;;;;;;;;;;5056156;28;20692;-64
2022/05/04 04:52:13;;;;;;;11.00;5.60;;;;;;;;;;5055883;28;20736;-66
2022/05/04 04:54:39;;;;;;;8.17;5.30;;;;;;;;;;5055870;28;20605;-65
2022/05/04 04:57:05;;;;;;;9.67;6.10;;;;;;;;;;5055818;28;20197;-65
2022/05/04 04:59:31;;;;;;;13.20;6.03;;;;;;;;;;5056288;28;20221;-65
2022/05/04 05:01:57;;;;;;;12.73;5.17;;;;;;;;;;5037635;28;20230;-65
2022/05/04 05:04:23;;;;;;;9.30;5.87;;;;;;;;;;5037673;28;20174;-64
2022/05/04 05:06:49;;;;;;;8.80;5.63;;;;;;;;;;5037697;28;20189;-63
2022/05/04 05:09:15;;;;;;;10.17;6.43;;;;;;;;;;5055578;28;20175;-65
2022/05/04 05:11:41;;;;;;;14.27;6.13;;;;;;;;;;5055595;28;20293;-63
2022/05/04 05:16:51;;;;;;;14.07;7.07;;;;;;;;;;5055547;28;20543;-66
2022/05/04 05:19:17;;;;;;;12.37;6.37;;;;;;;;;;5055463;28;20175;-65
2022/05/04 05:21:43;;;;;;;17.27;7.63;;;;;;;;;;5055149;28;20218;-66
2022/05/04 05:24:09;;;;;;;10.30;6.07;;;;;;;;;;5037201;28;20174;-64
2022/05/04 05:26:35;;;;;;;12.80;6.00;;;;;;;;;;5055314;28;20273;-66
2022/05/04 05:29:01;;;;;;;11.03;6.13;;;;;;;;;;5055871;28;20178;-66
2022/05/04 05:31:27;;;;;;;12.00;5.80;;;;;;;;;;5055435;28;20201;-66
2022/05/04 05:33:53;;;;;;;11.63;6.27;;;;;;;;;;5055329;28;20174;-65
2022/05/04 05:36:19;;;;;;;11.00;5.47;;;;;;;;;;5055310;28;20182;-63
2022/05/04 05:38:45;;;;;;;11.63;5.73;;;;;;;;;;5055386;28;20183;-64
2022/05/04 05:41:11;;;;;;;11.63;5.43;;;;;;;;;;5055465;28;20204;-64
2022/05/04 05:43:37;;;;;;;15.00;5.33;;;;;;;;;;5037219;28;20265;-63
2022/05/04 05:46:03;;;;;;;8.27;5.13;;;;;;;;;;5036510;28;20182;-64
2022/05/04 05:48:29;;;;;;;9.30;5.13;;;;;;;;;;5054961;28;20201;-64
2022/05/04 05:50:55;;;;;;;9.07;5.40;;;;;;;;;;5054929;28;20202;-65
2022/05/04 05:53:22;;;;;;;9.83;5.97;;;;;;;;;;5054900;28;20199;-64
2022/05/04 05:55:48;;;;;;;11.33;5.77;;;;;;;;;;5036966;28;20194;-65
2022/05/04 05:58:14;;;;;;;10.80;5.33;;;;;;;;;;5054803;28;20549;-64
2022/05/04 06:00:40;;;;;;;9.83;5.90;;;;;;;;;;5054891;28;20189;-66
2022/05/04 06:03:06;;;;;;;10.13;5.23;;;;;;;;;;5036676;28;20241;-66
2022/05/04 06:05:32;;;;;;;13.03;5.80;;;;;;;;;;5036729;28;20187;-66
2022/05/04 06:07:58;;;;;;;9.90;5.03;;;;;;;;;;5054500;28;20190;-66
2022/05/04 06:10:24;;;;;;;11.63;5.73;;;;;;;;;;5054477;28;20678;-65
2022/05/04 06:12:50;;;;;;;9.13;5.33;;;;;;;;;;5054366;28;20249;-65
2022/05/04 06:15:16;;;;;;;9.43;5.60;;;;;;;;;;5036427;28;20182;-66
2022/05/04 06:17:44;;;;;;;11.07;5.13;;;;;;;;;;5054411;28;20178;-65
2022/05/04 06:20:10;;;;;;;10.17;5.73;;;;;;;;;;5054611;28;20243;-65
2022/05/04 06:22:36;;;;;;;14.37;6.17;;;;;;;;;;5053931;28;20232;-65
2022/05/04 06:25:02;;;;;;;11.97;6.20;;;;;;;;;;5036291;28;20178;-65
2022/05/04 06:27:29;;;;;;;11.30;5.80;;;;;;;;;;5054152;28;20178;-65
2022/05/04 06:35:25;;;;;;;10.77;5.93;;;;;;;;;;5054585;28;20205;-65
2022/05/04 06:37:51;;;;;;;15.50;6.83;;;;;;;;;;5054170;28;20179;-65
2022/05/04 06:40:17;;;;;;;7.13;5.23;;;;;;;;;;5036100;28;20561;-66
2022/05/04 06:42:43;;;;;;;14.17;5.87;;;;;;;;;;5036108;28;20582;-65
2022/05/04 06:45:09;;;;;;;12.70;5.70;;;;;;;;;;5035998;28;20182;-65
2022/05/04 06:47:35;;;;;;;11.33;5.60;;;;;;;;;;5054026;28;20182;-65
2022/05/04 06:50:03;;;;;;;15.07;6.13;;;;;;;;;;5035873;28;20210;-65
2022/05/04 06:52:30;;;;;;;9.90;5.57;;;;;;;;;;5053968;28;20195;-67
2022/05/04 06:54:56;;;;;;;15.07;6.23;;;;;;;;;;5036051;28;20186;-65
2022/05/04 06:57:22;;;;;;;11.23;6.67;;;;;;;;;;5053600;28;20170;-62
2022/05/04 06:59:48;;;;;;;11.43;6.47;;;;;;;;;;5053756;28;20257;-67
2022/05/04 07:02:14;;;;;;;10.83;5.77;;;;;;;;;;5054061;28;20674;-64
2022/05/04 07:04:40;;;;;;;9.50;6.70;;;;;;;;;;5053791;28;20178;-63
2022/05/04 07:07:06;;;;;;;11.97;5.97;;;;;;;;;;5054255;28;20174;-64
2022/05/04 07:09:33;;;;;;;8.50;5.53;;;;;;;;;;5054034;28;20178;-66
2022/05/04 07:11:59;;;;;;;11.10;6.10;;;;;;;;;;5036029;28;20198;-63
2022/05/04 07:14:25;;;;;;;11.50;6.03;;;;;;;;;;5053650;28;20235;-63
2022/05/04 07:16:51;;;;;;;12.43;6.43;;;;;;;;;;5035690;28;20193;-64
2022/05/04 07:19:17;;;;;;;12.77;6.27;;;;;;;;;;5053487;28;20174;-64
2022/05/04 07:21:45;;;;;;;10.80;6.00;;;;;;;;;;5053809;28;20719;-63
2022/05/04 07:24:11;;;;;;;13.83;6.57;;;;;;;;;;5053544;28;20174;-64
2022/05/04 07:26:37;;;;;;;11.37;6.33;;;;;;;;;;5053031;28;20253;-64
2022/05/04 07:29:03;;;;;;;10.30;6.13;;;;;;;;;;5053147;28;20189;-64
2022/05/04 07:31:29;;;;;;;9.93;6.17;;;;;;;;;;5035118;28;20216;-64
2022/05/04 07:33:55;;;;;;;10.37;6.30;;;;;;;;;;5035361;28;20642;-65
2022/05/04 07:36:21;;;;;;;16.07;6.43;;;;;;;;;;5035556;28;20189;-65
2022/05/04 07:38:47;;;;;;;10.23;6.17;;;;;;;;;;5035639;28;20204;-65
2022/05/04 07:43:59;;;;;;;10.13;6.17;;;;;;;;;;5053797;28;20181;-64
2022/05/04 07:46:27;;;;;;;10.13;6.37;;;;;;;;;;5035798;28;20311;-64
2022/05/04 07:48:54;;;;;;;10.33;6.10;;;;;;;;;;5035875;28;20604;-64
2022/05/04 07:51:20;;;;;;;14.07;6.87;;;;;;;;;;5053568;28;20556;-64
2022/05/04 07:53:46;;;;;;;13.30;6.10;;;;;;;;;;5053211;28;20178;-64
2022/05/04 07:56:12;;;;;;;10.83;6.53;;;;;;;;;;5053470;28;20179;-64
2022/05/04 07:58:38;;;;;;;11.63;6.77;;;;;;;;;;5053030;28;20174;-63
2022/05/04 08:06:49;;;;;;;13.50;8.30;;;;;;;;;;4991810;28;20246;-61
2022/05/04 08:09:16;;;;;;;11.90;7.37;;;;;;;;;;5022986;28;20293;-61
2022/05/04 08:11:43;;;;;;;12.10;7.70;;;;;;;;;;5056696;28;20202;-64
2022/05/04 08:14:09;;;;;;;13.87;7.43;;;;;;;;;;5038996;28;20638;-63
2022/05/04 08:16:35;;;;;;;13.23;7.20;;;;;;;;;;5056947;28;20217;-62
2022/05/04 08:19:01;;;;;;;17.27;7.40;;;;;;;;;;5056646;28;20170;-63
2022/05/04 08:21:27;;;;;;;13.90;7.27;;;;;;;;;;5038617;28;20182;-63
2022/05/04 08:23:53;;;;;;;10.77;6.80;;;;;;;;;;5038881;28;20196;-63
2022/05/04 08:26:19;;;;;;;16.20;7.20;;;;;;;;;;5056661;28;20303;-63
2022/05/04 08:28:46;;;;;;;13.77;7.30;;;;;;;;;;5038595;28;20750;-62
2022/05/04 08:31:12;;;;;;;11.40;7.00;;;;;;;;;;5056626;28;20599;-61
2022/05/04 08:33:38;;;;;;;10.77;7.53;;;;;;;;;;5038735;28;20182;-63
2022/05/04 08:36:04;;;;;;;12.40;8.13;;;;;;;;;;5056771;28;20179;-63
2022/05/04 08:38:30;;;;;;;14.03;7.47;;;;;;;;;;5038547;28;20240;-64
2022/05/04 08:40:57;;;;;;;13.07;6.83;;;;;;;;;;5038386;28;20179;-64
2022/05/04 08:43:26;;;;;;;14.73;6.53;;;;;;;;;;5038210;28;20260;-63
2022/05/04 08:45:52;;;;;;;13.73;7.03;;;;;;;;;;5056474;28;20178;-62
2022/05/04 08:48:18;;;;;;;9.53;6.03;;;;;;;;;;5056215;28;20377;-63
2022/05/04 08:50:44;;;;;;;9.47;6.77;;;;;;;;;;5037911;28;20297;-63
2022/05/04 08:53:10;;;;;;;12.40;5.63;;;;;;;;;;5055822;28;20191;-63
2022/05/04 08:55:38;;;;;;;10.00;6.50;;;;;;;;;;5055876;28;20216;-63
2022/05/04 08:58:04;;;;;;;9.40;5.73;;;;;;;;;;5056123;28;20170;-63
2022/05/04 09:00:30;;;;;;;9.33;5.97;;;;;;;;;;5056011;28;20186;-63
2022/05/04 09:02:56;;;;;;;8.60;5.43;;;;;;;;;;5055751;28;20285;-63
2022/05/04 09:05:23;;;;;;;10.00;5.97;;;;;;;;;;5055752;28;20261;-62
2022/05/04 09:07:51;;;;;;;8.50;6.07;;;;;;;;;;5056208;28;20245;-63
2022/05/04 09:10:20;;;;;;;9.23;5.80;;;;;;;;;;5055592;28;20659;-63
2022/05/04 09:12:47;;;;;;;9.30;5.67;;;;;;;;;;5056243;28;20190;-63
2022/05/04 09:15:20;;;;;;;9.23;6.43;;;;;;;;;;5055725;28;20179;-63
2022/05/04 09:17:46;;;;;;;8.80;6.00;;;;;;;;;;5055974;28;20257;-65
2022/05/04 09:22:57;;;;;;;7.93;6.20;;;;;;;;;;5054806;28;20343;-63
2022/05/04 09:25:24;;;;;;;9.67;5.77;;;;;;;;;;5055698;28;20182;-63
2022/05/04 09:27:51;;;;;;;9.53;5.97;;;;;;;;;;5055869;28;20171;-63
2022/05/04 09:30:23;;;;;;;11.40;6.23;;;;;;;;;;5037624;28;20234;-63
2022/05/04 09:32:49;;;;;;;11.53;5.70;;;;;;;;;;5055511;28;20254;-63
2022/05/04 09:35:16;;;;;;;7.07;5.30;;;;;;;;;;5055486;28;20178;-64
2022/05/04 09:46:04;;;;;;;8.27;5.30;;;;;;;;;;5055871;28;20178;-63
2022/05/04 09:48:31;;;;;;;8.60;5.43;;;;;;;;;;5055480;28;20190;-63
2022/05/04 09:50:58;;;;;;;9.83;5.83;;;;;;;;;;5037303;28;20206;-64
2022/05/04 09:53:27;;;;;;;10.60;5.20;;;;;;;;;;5055109;28;20200;-63
2022/05/04 09:55:54;;;;;;;11.90;6.03;;;;;;;;;;5055015;28;20167;-64
2022/05/04 09:58:20;;;;;;;7.97;5.53;;;;;;;;;;5036778;28;20182;-63
2022/05/04 10:00:46;;;;;;;10.77;5.80;;;;;;;;;;5055080;28;20206;-63
2022/05/04 10:03:12;;;;;;;8.40;5.83;;;;;;;;;;5054814;28;20205;-63
2022/05/04 10:05:38;;;;;;;9.63;5.43;;;;;;;;;;5054747;28;20178;-64
2022/05/04 10:08:04;;;;;;;9.10;5.97;;;;;;;;;;5036729;28;20189;-64
2022/05/04 10:10:30;;;;;;;7.47;5.27;;;;;;;;;;5054535;28;20202;-64
2022/05/04 10:12:58;;;;;;;8.13;5.07;;;;;;;;;;5054583;28;20248;-64
2022/05/04 10:15:25;;;;;;;9.40;5.87;;;;;;;;;;5054816;28;20173;-64
2022/05/04 10:17:54;;;;;;;12.90;5.70;;;;;;;;;;5036631;28;20174;-64
2022/05/04 10:20:30;;;;;;;6.50;5.30;;;;;;;;;;5054370;28;20550;-63
2022/05/04 10:23:03;;;;;;;8.73;5.23;;;;;;;;;;5052884;22;20217;-64
2022/05/04 10:25:34;;;;;;;9.27;5.40;;;;;;;;;;5033555;28;20221;-67
2022/05/04 10:28:06;;;;;;;8.67;5.70;;;;;;;;;;5034060;28;20229;-68
2022/05/04 10:30:33;;;;;;;7.80;5.20;;;;;;;;;;5016226;28;20203;-68
2022/05/04 10:33:06;;;;;;;7.53;5.10;;;;;;;;;;5015942;28;20556;-67
2022/05/04 10:35:48;;;;;;;9.97;5.40;;;;;;;;;;5034281;28;20178;-67
2022/05/04 10:38:26;;;;;;;9.43;5.20;;;;;;;;;;5035075;28;20225;-68
2022/05/04 10:40:53;;;;;;;11.73;5.93;;;;;;;;;;5016211;28;20183;-67
2022/05/04 10:43:36;;;;;;;10.90;5.20;;;;;;;;;;5034263;28;20198;-67
2022/05/04 10:46:06;;;;;;;6.43;4.97;;;;;;;;;;5016166;28;20186;-67
2022/05/04 10:48:32;;;;;;;6.33;4.43;;;;;;;;;;5033679;28;20183;-67
2022/05/04 10:51:02;;;;;;;7.47;5.00;;;;;;;;;;5033861;28;20597;-67
2022/05/04 10:53:29;;;;;;;12.00;5.60;;;;;;;;;;5033586;28;20218;-67
2022/05/04 10:56:03;;;;;;;9.00;4.67;;;;;;;;;;5033794;28;20167;-67
2022/05/04 10:58:35;;;;;;;10.87;4.90;;;;;;;;;;5033565;28;20175;-67
2022/05/04 11:01:04;;;;;;;8.53;5.10;;;;;;;;;;5033550;28;20186;-67
2022/05/04 11:03:37;;;;;;;5.83;4.63;;;;;;;;;;5033702;28;20203;-67
2022/05/04 11:06:05;;;;;;;10.47;5.73;;;;;;;;;;5015882;28;20217;-67
2022/05/04 11:08:38;;;;;;;11.70;5.00;;;;;;;;;;5016017;28;20190;-67
2022/05/04 11:11:05;;;;;;;8.80;5.50;;;;;;;;;;5015807;28;20203;-68
2022/05/04 11:13:31;;;;;;;8.70;4.93;;;;;;;;;;5033600;28;20658;-68
2022/05/04 11:16:01;;;;;;;7.13;4.43;;;;;;;;;;5016002;28;20175;-68
2022/05/04 11:18:28;;;;;;;8.70;5.80;;;;;;;;;;5033554;28;20175;-68
2022/05/04 11:20:54;;;;;;;9.57;5.00;;;;;;;;;;5033415;28;20202;-68
2022/05/04 11:23:24;;;;;;;8.13;4.93;;;;;;;;;;5015590;28;20246;-68
2022/05/04 11:25:50;;;;;;;8.60;5.23;;;;;;;;;;5015694;28;20215;-68
2022/05/04 11:28:19;;;;;;;13.40;5.47;;;;;;;;;;5033624;28;20643;-68
2022/05/04 11:30:45;;;;;;;10.47;5.20;;;;;;;;;;5033617;28;20673;-67
2022/05/04 11:33:14;;;;;;;5.97;4.43;;;;;;;;;;5033327;28;20190;-67
2022/05/04 11:35:41;;;;;;;13.40;5.00;;;;;;;;;;5033352;28;20547;-68
2022/05/04 11:38:07;;;;;;;5.70;4.43;;;;;;;;;;5015638;28;20183;-67
2022/05/04 11:40:33;;;;;;;8.27;5.00;;;;;;;;;;5033299;28;20305;-67
2022/05/04 11:42:59;;;;;;;6.33;4.60;;;;;;;;;;5015642;28;20215;-67
2022/05/04 11:45:25;;;;;;;8.60;4.77;;;;;;;;;;5035590;28;20185;-67
2022/05/04 11:47:52;;;;;;;7.80;4.40;;;;;;;;;;5037822;28;20175;-67
2022/05/04 11:50:17;;;;;;;8.77;4.87;;;;;;;;;;5019314;28;20198;-67
2022/05/04 11:52:45;;;;;;;6.63;4.43;;;;;;;;;;5037247;28;20181;-67
2022/05/04 11:55:11;;;;;;;8.60;4.80;;;;;;;;;;5037267;28;20182;-67
2022/05/04 11:57:41;;;;;;;8.67;4.67;;;;;;;;;;5037094;28;20175;-67
2022/05/04 12:00:14;;;;;;;7.77;4.67;;;;;;;;;;5037348;28;20202;-67
2022/05/04 12:02:40;;;;;;;8.07;4.77;;;;;;;;;;5037251;28;20185;-67
2022/05/04 12:05:06;;;;;;;7.33;4.57;;;;;;;;;;5037106;28;20627;-67
2022/05/04 12:07:32;;;;;;;7.73;4.80;;;;;;;;;;5037746;28;20183;-67
2022/05/04 12:09:58;;;;;;;8.73;4.23;;;;;;;;;;5037349;28;20203;-66
2022/05/04 12:12:24;;;;;;;8.47;4.80;;;;;;;;;;5037426;28;20182;-66
2022/05/04 12:14:53;;;;;;;6.20;4.27;;;;;;;;;;5036864;28;20199;-66
2022/05/04 12:17:25;;;;;;;5.50;4.30;;;;;;;;;;5037129;28;20607;-66
2022/05/04 12:19:51;;;;;;;6.57;3.90;;;;;;;;;;5019095;28;20206;-66
2022/05/04 12:22:17;;;;;;;8.17;4.20;;;;;;;;;;5036658;28;20178;-66
2022/05/04 12:24:43;;;;;;;8.00;4.37;;;;;;;;;;5036632;28;20214;-67
2022/05/04 12:27:09;;;;;;;9.13;4.83;;;;;;;;;;5036715;28;20179;-66
2022/05/04 12:35:05;;;;;;;7.60;4.23;;;;;;;;;;5036730;28;20249;-67
2022/05/04 12:37:34;;;;;;;7.93;4.33;;;;;;;;;;5036490;28;20175;-67
2022/05/04 12:40:02;;;;;;;6.57;4.20;;;;;;;;;;5036505;28;20191;-67
2022/05/04 12:42:28;;;;;;;6.53;4.40;;;;;;;;;;5037238;28;20285;-67
2022/05/04 12:44:54;;;;;;;6.93;4.23;;;;;;;;;;5036411;28;20198;-67
2022/05/04 12:47:21;;;;;;;4.63;3.80;;;;;;;;;;5018758;28;20325;-67
2022/05/04 12:49:48;;;;;;;9.13;4.10;;;;;;;;;;5018437;28;20238;-67
2022/05/04 12:52:14;;;;;;;6.13;4.20;;;;;;;;;;5036661;28;20520;-67
2022/05/04 12:54:40;;;;;;;5.77;4.23;;;;;;;;;;5036438;28;20199;-66
2022/05/04 12:57:06;;;;;;;7.07;4.17;;;;;;;;;;5035978;28;20635;-66
2022/05/04 12:59:32;;;;;;;4.73;4.10;;;;;;;;;;5036437;28;20179;-66
2022/05/04 13:01:58;;;;;;;6.30;4.10;;;;;;;;;;5018329;28;20648;-66
2022/05/04 13:04:24;;;;;;;6.87;5.10;;;;;;;;;;5035879;28;20671;-66
2022/05/04 13:06:50;;;;;;;6.63;4.37;;;;;;;;;;5018343;28;20189;-66
2022/05/04 13:09:16;;;;;;;6.70;4.40;;;;;;;;;;5036195;28;20551;-66
2022/05/04 13:11:42;;;;;;;8.70;4.77;;;;;;;;;;5017723;28;20210;-66
2022/05/04 13:14:08;;;;;;;6.57;4.70;;;;;;;;;;5035825;28;20195;-66
2022/05/04 13:16:34;;;;;;;8.47;4.80;;;;;;;;;;5035736;28;20179;-66
2022/05/04 13:19:01;;;;;;;5.93;4.23;;;;;;;;;;5035705;28;20175;-65
2022/05/04 13:21:27;;;;;;;7.93;4.70;;;;;;;;;;5035715;28;20175;-65
2022/05/04 13:23:53;;;;;;;7.53;4.97;;;;;;;;;;5017811;28;20235;-66
2022/05/04 13:26:19;;;;;;;8.77;4.70;;;;;;;;;;5017824;28;20183;-65
2022/05/04 13:28:45;;;;;;;6.67;4.67;;;;;;;;;;5017847;28;20186;-66
2022/05/04 13:31:12;;;;;;;6.67;5.10;;;;;;;;;;5017704;28;20199;-65
2022/05/04 13:33:38;;;;;;;6.53;4.67;;;;;;;;;;5035794;28;20694;-66
2022/05/04 13:36:04;;;;;;;7.53;5.17;;;;;;;;;;5035324;28;20186;-66
2022/05/04 13:38:30;;;;;;;7.07;4.90;;;;;;;;;;5035445;28;20254;-66
2022/05/04 13:40:57;;;;;;;6.40;5.20;;;;;;;;;;5035173;28;20214;-66
2022/05/04 13:43:24;;;;;;;7.97;5.00;;;;;;;;;;5017402;28;20252;-66
2022/05/04 13:45:50;;;;;;;6.50;4.77;;;;;;;;;;5017918;28;20183;-66
2022/05/04 13:48:16;;;;;;;8.83;4.63;;;;;;;;;;5035004;28;20183;-66
2022/05/04 13:53:26;;;;;;;8.10;5.07;;;;;;;;;;5035239;28;20337;-66
2022/05/04 13:55:54;;;;;;;6.90;4.37;;;;;;;;;;5035052;28;20600;-67
2022/05/04 13:58:24;;;;;;;12.50;5.23;;;;;;;;;;5035675;28;20186;-66
2022/05/04 14:00:51;;;;;;;7.87;4.90;;;;;;;;;;5037562;28;20171;-66
2022/05/04 14:03:18;;;;;;;7.50;4.90;;;;;;;;;;5017503;28;20203;-65
2022/05/04 14:05:44;;;;;;;8.00;4.93;;;;;;;;;;5035102;28;20552;-65
2022/05/04 14:08:10;;;;;;;9.37;6.50;;;;;;;;;;5034451;28;20190;-65
2022/05/04 14:10:43;;;;;;;8.50;5.50;;;;;;;;;;5017079;28;20235;-66
2022/05/04 14:13:09;;;;;;;7.70;5.50;;;;;;;;;;5036310;28;20675;-65
2022/05/04 14:15:35;;;;;;;9.47;5.87;;;;;;;;;;5035561;28;20594;-65
2022/05/04 14:18:03;;;;;;;8.80;6.00;;;;;;;;;;5035022;28;20183;-65
2022/05/04 14:20:29;;;;;;;7.13;5.13;;;;;;;;;;5037276;28;20179;-65
2022/05/04 14:22:55;;;;;;;7.57;4.70;;;;;;;;;;5039165;28;20685;-65
2022/05/04 14:25:21;;;;;;;7.50;5.23;;;;;;;;;;5041313;28;20237;-65
2022/05/04 14:27:47;;;;;;;8.40;5.50;;;;;;;;;;5041064;28;20175;-65
2022/05/04 14:30:13;;;;;;;8.43;5.07;;;;;;;;;;5024098;28;20214;-65
2022/05/04 14:32:39;;;;;;;10.33;5.70;;;;;;;;;;5040131;28;20306;-66
2022/05/04 14:35:05;;;;;;;6.67;5.20;;;;;;;;;;5023061;28;20240;-65
2022/05/04 14:37:31;;;;;;;9.80;6.07;;;;;;;;;;5034602;28;20639;-65
2022/05/04 14:39:58;;;;;;;8.00;5.40;;;;;;;;;;5034266;28;20198;-65
2022/05/04 14:42:24;;;;;;;11.53;4.97;;;;;;;;;;5034175;28;20175;-65
2022/05/04 14:44:50;;;;;;;9.47;5.13;;;;;;;;;;5034047;28;20248;-65
2022/05/04 14:47:15;;;;;;;7.33;5.50;;;;;;;;;;5034291;28;20182;-65
2022/05/04 14:49:44;;;;;;;7.17;5.50;;;;;;;;;;5016241;28;20189;-66
2022/05/04 14:52:11;;;;;;;6.70;5.23;;;;;;;;;;5016413;28;20215;-65
2022/05/04 14:54:37;;;;;;;8.33;6.00;;;;;;;;;;5016271;28;20203;-66
2022/05/04 14:57:03;;;;;;;6.10;4.90;;;;;;;;;;5033881;28;20186;-65
2022/05/04 14:59:29;;;;;;;7.73;5.27;;;;;;;;;;5033835;28;20236;-65
2022/05/04 15:01:55;;;;;;;7.30;5.23;;;;;;;;;;5016270;28;20277;-64
2022/05/04 15:07:05;;;;;;;7.13;4.70;;;;;;;;;;5034145;28;20177;-65
2022/05/04 15:09:31;;;;;;;6.80;4.97;;;;;;;;;;5034007;28;20276;-65
2022/05/04 15:11:57;;;;;;;7.37;5.17;;;;;;;;;;5016138;28;20203;-65
2022/05/04 15:14:24;;;;;;;8.37;5.30;;;;;;;;;;5033744;28;20191;-65
2022/05/04 15:16:50;;;;;;;6.43;4.87;;;;;;;;;;5033771;28;20171;-65
2022/05/04 15:19:15;;;;;;;6.00;4.47;;;;;;;;;;5033807;28;20313;-66
2022/05/04 15:21:41;;;;;;;6.27;5.10;;;;;;;;;;5015564;28;20305;-65
2022/05/04 15:24:07;;;;;;;7.73;4.97;;;;;;;;;;5015430;28;20211;-65